Offerle, KS (67563)

10:33 AM CDT on July 28, 2016 (GMT -0500)
Backyard Weather | | Change Station

Elev 2168 ft 37.93 °N, 99.41 °W | Updated 14 seconds ago

Clear
Clear
82.0 °F
Feels Like 82 °F
N
1.0
Wind Variable Wind from ESE
Gusts 13.0 mph

Today
High -- | Low -- °F
--% Chance of Precip.
Yesterday
High -- | Low -- °F
Precip. -- in
Pressure 29.95 in
Visibility 10.0 miles
Clouds Clear
Heat Index 82 °F
Dew Point 60 °F
Humidity 48%
Rainfall 0.07 in
Snow Depth Not available.
6:38 AM 8:50 PM
Waning Crescent, 31% visible
METAR KDDC 281452Z AUTO 07004KT 10SM CLR 25/18 A3004 RMK AO2 SLP141 T02500183 58019
Pressure 29.95 in
Visibility 10.0 miles
Clouds Clear
Heat Index 82 °F
Dew Point 60 °F
Humidity 48%
Rainfall 0.07 in
Snow Depth Not available.
6:38 AM 8:50 PM
Waning Crescent, 31% visible
METAR KDDC 281452Z AUTO 07004KT 10SM CLR 25/18 A3004 RMK AO2 SLP141 T02500183 58019

10-Day Weather Forecast

Almanac

Astronomy

Jul. 28, 2016 Rise Set
Actual Time
Civil Twilight
Nautical Twilight
Astronomical Twilight
Moon
Length of Visible Light
Length of Day
Tomorrow will be .
, % of the Moon is Illuminated

Today's Extremes

State Highs State Lows

Community

WunderPhotos

Upload Photos

1,928,129 photos uploaded!

WunderBlog® & News

Nearby

Air Quality

  Air Quality AQ Index Pollutant
Not available.

Snow Depth

Station Depth Elevation

Earthquake Activity

City Distance Mag. Time & Date
Minimum magnitude displayed is 2.5.

Coastal Water Temperatures

Place Temperature

Stations

Nearby Weather Stations

Station Location Temp. Windchill Dew Point Humidity Wind Precip. Elev Updated Type
                   

Watches & Warnings

There are currently no watches in effect.